Weather at Baghdad International Airport

Public forecast

Using degrees Celsius for public forecast. Weather courtesy of forecast.io.

Current aviation weather report (METAR) for Baghdad International Airport

Retrieved 2020/11/25 08:00 UTC (5 minutes ago):

ORBI 250800Z 12007KT CAVOK 17/05 Q1017 NOSIG

Aviation forecast (TAF) for Baghdad International Airport

Retrieved 2020/11/25 06:00 UTC (2 hours ago):

TAF TAF ORBI 250400Z 2506/2606 VRB03KT 8000 SCT045 BECMG 2507/2509 17010KT BECMG 2510/2512 8000 NSC